Time;durP1;ratioP1;P1;durP2;ratioP2;P2;SDS_P1;SDS_P2;PMS_P1;PMS_P2;Temp;Humidity;BMP_temperature;BMP_pressure;BME280_temperature;BME280_humidity;BME280_pressure;Samples;Min_cycle;Max_cycle;Signal;HPM_P1;HPM_P2
2023/03/27 00:01:06;;;;;;;3.70;2.17;;;6.90;1.00;;;;;;5074814;28;20385;-78
2023/03/27 00:03:36;;;;;;;7.83;2.53;;;6.90;1.00;;;;;;5075095;28;20435;-78
2023/03/27 00:06:10;;;;;;;2.87;2.37;;;6.80;1.00;;;;;;5074685;28;20393;-78
2023/03/27 00:08:52;;;;;;;5.63;2.50;;;6.70;1.00;;;;;;5074636;28;20425;-78
2023/03/27 00:11:23;;;;;;;3.63;2.27;;;6.60;1.00;;;;;;5082634;28;20894;-78
2023/03/27 00:13:59;;;;;;;8.97;2.27;;;6.60;1.00;;;;;;5079788;28;20492;-78
2023/03/27 00:16:36;;;;;;;8.93;3.33;;;6.70;1.00;;;;;;5074316;28;21056;-78
2023/03/27 00:19:23;;;;;;;9.90;2.80;;;6.60;1.00;;;;;;5056472;28;20415;-80
2023/03/27 00:22:23;;;;;;;6.67;3.33;;;6.60;1.00;;;;;;5056428;28;20467;-81
2023/03/27 00:25:00;;;;;;;7.03;2.47;;;6.60;1.00;;;;;;5074370;28;20390;-81
2023/03/27 00:27:47;;;;;;;14.43;3.07;;;6.50;1.00;;;;;;5074204;28;20450;-80
2023/03/27 00:30:14;;;;;;;9.97;2.87;;;6.50;1.00;;;;;;5074357;28;20397;-80
2023/03/27 00:32:41;;;;;;;9.87;2.57;;;6.50;1.00;;;;;;5090181;28;20844;-78
2023/03/27 00:35:08;;;;;;;6.87;2.87;;;6.50;1.00;;;;;;5094487;28;20444;-78
2023/03/27 00:37:37;;;;;;;10.17;2.83;;;6.50;1.00;;;;;;5094740;28;20384;-78
2023/03/27 00:40:07;;;;;;;9.63;3.40;;;6.50;1.00;;;;;;5094271;28;20383;-79
2023/03/27 00:42:35;;;;;;;12.53;3.13;;;6.40;1.00;;;;;;5094202;28;20432;-78
2023/03/27 00:45:09;;;;;;;7.93;2.23;;;6.40;1.00;;;;;;5074147;28;20756;-78
2023/03/27 00:48:07;;;;;;;13.40;2.90;;;6.40;1.00;;;;;;5073901;28;20409;-79
2023/03/27 00:51:05;;;;;;;5.83;1.73;;;6.30;1.00;;;;;;5074091;28;20409;-81
2023/03/27 00:53:42;;;;;;;7.87;2.50;;;6.20;1.00;;;;;;5091030;28;20412;-80
2023/03/27 00:56:59;;;;;;;11.20;2.80;;;6.20;1.00;;;;;;5093901;28;20569;-81
2023/03/27 00:59:53;;;;;;;13.97;2.90;;;6.10;1.00;;;;;;5075926;28;21040;-81
2023/03/27 01:02:48;;;;;;;13.20;3.70;;;6.00;1.00;;;;;;5094371;28;20381;-81
2023/03/27 01:05:53;;;;;;;11.80;2.93;;;5.90;1.00;;;;;;5094131;28;20388;-81
2023/03/27 01:08:32;;;;;;;2.83;1.93;;;5.90;1.00;;;;;;5093864;28;20444;-80
2023/03/27 01:11:47;;;;;;;6.13;2.17;;;5.80;1.00;;;;;;5076203;28;20926;-81
2023/03/27 01:14:59;;;;;;;16.43;2.40;;;5.60;1.00;;;;;;5093677;28;20424;-81
2023/03/27 01:17:41;;;;;;;10.17;2.77;;;5.60;1.00;;;;;;5094170;28;20419;-80
2023/03/27 01:20:44;;;;;;;14.43;2.30;;;5.50;1.00;;;;;;5094369;28;20395;-80
2023/03/27 01:23:46;;;;;;;13.83;2.47;;;5.30;1.00;;;;;;5094049;28;20368;-80
2023/03/27 01:26:56;;;;;;;7.30;1.90;;;5.30;1.00;;;;;;5093721;28;20384;-80
2023/03/27 01:29:54;;;;;;;10.23;2.20;;;5.20;1.00;;;;;;5075705;28;20412;-81
2023/03/27 01:32:43;;;;;;;4.87;1.83;;;5.10;1.00;;;;;;5097122;28;20426;-80
2023/03/27 01:35:35;;;;;;;6.27;1.70;;;5.00;1.00;;;;;;5094300;28;20813;-80
2023/03/27 01:41:31;;;;;;;11.27;2.03;;;4.90;1.00;;;;;;5097706;28;20387;-81
2023/03/27 01:44:25;;;;;;;12.40;1.57;;;4.80;1.00;;;;;;5083688;28;20764;-81
2023/03/27 01:47:00;;;;;;;9.23;2.10;;;4.70;1.00;;;;;;5077495;28;20443;-81
2023/03/27 01:49:52;;;;;;;4.63;1.40;;;4.70;1.00;;;;;;5077549;28;20434;-81
2023/03/27 01:52:25;;;;;;;2.83;1.27;;;4.70;1.00;;;;;;5077218;28;20389;-81
2023/03/27 01:54:57;;;;;;;7.60;1.67;;;4.60;1.00;;;;;;5076979;28;20440;-80
2023/03/27 01:57:36;;;;;;;7.37;1.90;;;4.60;1.00;;;;;;5076866;28;20458;-81
2023/03/27 02:00:37;;;;;;;6.13;1.63;;;4.50;1.00;;;;;;5077653;28;20413;-80
2023/03/27 02:03:26;;;;;;;7.13;1.50;;;4.40;1.00;;;;;;5087667;28;20796;-80
2023/03/27 02:05:57;;;;;;;7.57;1.53;;;4.30;1.00;;;;;;5097364;28;20403;-78
2023/03/27 02:08:48;;;;;;;5.27;1.27;;;4.20;1.00;;;;;;5097064;28;20424;-78
2023/03/27 02:11:14;;;;;;;5.00;1.43;;;4.20;1.00;;;;;;5097222;28;20779;-78
2023/03/27 02:13:45;;;;;;;4.77;1.17;;;4.20;1.00;;;;;;5097049;28;20396;-78
2023/03/27 02:16:15;;;;;;;10.20;1.00;;;4.10;1.00;;;;;;5097071;28;20448;-78
2023/03/27 02:18:48;;;;;;;4.63;1.37;;;4.10;1.00;;;;;;5097420;28;20435;-78
2023/03/27 02:21:17;;;;;;;7.37;2.07;;;4.10;1.00;;;;;;5097312;28;20739;-78
2023/03/27 02:23:43;;;;;;;6.20;1.33;;;4.10;1.00;;;;;;5082108;28;20744;-78
2023/03/27 02:26:12;;;;;;;9.50;1.53;;;4.00;1.00;;;;;;5092775;28;20180;-79
2023/03/27 02:29:17;;;;;;;5.30;1.50;;;4.00;1.00;;;;;;5097007;28;20155;-78
2023/03/27 02:32:22;;;;;;;8.30;2.10;;;4.00;1.00;;;;;;5097100;28;20412;-78
2023/03/27 02:35:22;;;;;;;4.17;1.53;;;4.00;1.00;;;;;;5076873;28;20413;-80
2023/03/27 02:38:19;;;;;;;6.75;1.42;;;4.00;1.00;;;;;;5058464;28;20413;-80
2023/03/27 02:40:56;;;;;;;2.93;1.40;;;4.00;1.00;;;;;;5076276;28;20520;-80
2023/03/27 02:43:43;;;;;;;9.80;1.27;;;4.00;1.00;;;;;;5076238;28;20393;-80
2023/03/27 02:46:47;;;;;;;5.28;1.50;;;3.90;1.00;;;;;;5076403;28;20385;-80
2023/03/27 02:49:25;;;;;;;2.60;1.40;;;3.80;1.00;;;;;;5076855;28;20162;-77
2023/03/27 02:52:02;;;;;;;3.67;1.27;;;3.70;1.00;;;;;;5076360;28;20430;-77
2023/03/27 02:54:41;;;;;;;3.40;1.48;;;3.60;1.00;;;;;;5075991;28;20614;-78
2023/03/27 02:57:13;;;;;;;4.67;1.30;;;3.60;1.00;;;;;;5075972;28;20167;-77
2023/03/27 02:59:48;;;;;;;5.57;1.40;;;3.50;1.00;;;;;;5076143;28;20400;-78
2023/03/27 03:02:28;;;;;;;3.42;1.30;;;3.50;1.00;;;;;;5075869;28;20641;-77
2023/03/27 03:05:09;;;;;;;3.08;1.27;;;3.60;1.00;;;;;;5076048;28;20151;-77
2023/03/27 03:07:36;;;;;;;4.47;1.25;;;3.60;1.00;;;;;;5075806;28;20198;-77
2023/03/27 03:10:07;;;;;;;8.48;1.50;;;3.60;1.00;;;;;;5076003;28;20151;-78
2023/03/27 03:12:35;;;;;;;5.75;1.70;;;3.60;1.00;;;;;;5076267;28;20260;-78
2023/03/27 03:15:36;;;;;;;7.25;1.70;;;3.50;1.00;;;;;;5081806;28;20232;-78
2023/03/27 03:18:06;;;;;;;5.78;1.65;;;3.50;1.00;;;;;;5096172;28;20204;-78
2023/03/27 03:20:36;;;;;;;9.93;1.60;;;3.50;1.00;;;;;;5096124;28;20633;-77
2023/03/27 03:23:01;;;;;;;8.13;1.80;;;3.50;1.00;;;;;;5095759;28;20163;-77
2023/03/27 03:25:30;;;;;;;8.47;1.80;;;3.50;1.00;;;;;;5090378;28;20175;-77
2023/03/27 03:27:59;;;;;;;4.20;1.50;;;3.40;1.00;;;;;;5075414;28;20636;-78
2023/03/27 03:30:37;;;;;;;5.35;1.50;;;3.40;1.00;;;;;;5075295;28;20646;-78
2023/03/27 03:33:05;;;;;;;7.15;1.90;;;3.40;1.00;;;;;;5075243;28;20163;-78
2023/03/27 03:35:49;;;;;;;7.35;1.80;;;3.40;1.00;;;;;;5075449;28;20282;-77
2023/03/27 03:38:25;;;;;;;9.23;1.80;;;3.40;1.00;;;;;;5075199;28;20166;-78
2023/03/27 03:41:00;;;;;;;4.23;1.70;;;3.40;1.00;;;;;;5057191;28;20175;-78
2023/03/27 03:43:28;;;;;;;7.35;1.63;;;3.40;1.00;;;;;;5075022;28;20868;-78
2023/03/27 03:45:59;;;;;;;7.07;1.33;;;3.40;1.00;;;;;;5077366;28;20518;-78
2023/03/27 03:48:47;;;;;;;8.32;1.40;;;3.40;1.00;;;;;;5074981;28;20187;-77
2023/03/27 03:51:59;;;;;;;2.83;1.10;;;3.40;1.00;;;;;;5057480;28;20187;-81
2023/03/27 03:57:46;;;;;;;6.55;1.30;;;3.40;1.00;;;;;;5075182;28;20170;-82
2023/03/27 04:00:12;;;;;;;3.47;1.20;;;3.30;1.00;;;;;;5074790;28;20565;-82
2023/03/27 04:02:42;;;;;;;4.63;1.70;;;3.30;1.00;;;;;;5083083;28;20539;-83
2023/03/27 04:05:17;;;;;;;;;;;3.40;1.00;;;;;;5095502;28;20177;-83
2023/03/27 04:07:48;;;;;;;;;;;3.30;1.00;;;;;;5095209;28;19965;-83
2023/03/27 04:10:17;;;;;;;;;;;3.20;1.00;;;;;;5073657;28;19955;-83
2023/03/27 04:12:53;;;;;;;;;;;3.20;1.00;;;;;;5075362;28;20260;-82
2023/03/27 04:15:29;;;;;;;;;;;3.20;1.00;;;;;;5074874;28;19944;-83
2023/03/27 04:18:06;;;;;;;;;;;3.10;1.00;;;;;;5074973;28;19904;-83
2023/03/27 04:20:33;;;;;;;;;;;3.10;1.00;;;;;;5075067;28;20364;-79
2023/03/27 04:23:01;;;;;;;;;;;3.00;1.00;;;;;;5089946;28;19904;-79
2023/03/27 04:25:27;;;;;;;;;;;3.10;1.00;;;;;;5066243;28;20278;-79
2023/03/27 04:27:53;;;;;;;;;;;3.00;1.00;;;;;;5076598;28;19958;-79
2023/03/27 04:30:35;;;;;;;;;;;3.00;1.00;;;;;;5060596;28;19908;-79
2023/03/27 04:33:01;;;;;;;;;;;3.00;1.00;;;;;;5074851;28;20352;-79
2023/03/27 04:38:30;;;;;;;;;;;2.90;1.00;;;;;;5074546;28;20406;-82
2023/03/27 04:41:06;;;;;;;;;;;2.90;1.00;;;;;;5074609;28;19908;-82
2023/03/27 04:43:35;;;;;;;;;;;2.90;1.00;;;;;;5056343;28;19972;-82
2023/03/27 04:46:17;;;;;;;;;;;2.80;1.00;;;;;;5092895;28;19908;-82
2023/03/27 04:48:59;;;;;;;;;;;2.90;1.00;;;;;;5094775;28;19911;-82
2023/03/27 04:54:35;;;;;;;;;;;2.80;1.00;;;;;;5093977;28;19926;-81
2023/03/27 04:57:36;;;;;;;;;;;2.70;1.00;;;;;;5094483;28;19960;-82
2023/03/27 05:00:18;;;;;;;;;;;2.70;1.00;;;;;;5092348;28;19904;-81
2023/03/27 05:02:44;;;;;;;;;;;2.60;1.00;;;;;;5074208;28;19919;-82
2023/03/27 05:05:12;;;;;;;;;;;2.60;1.00;;;;;;5074074;28;20003;-81
2023/03/27 05:07:53;;;;;;;;;;;2.60;1.00;;;;;;5074154;28;19911;-82
2023/03/27 05:13:22;;;;;;;;;;;2.60;1.00;;;;;;5074070;28;19926;-82
2023/03/27 05:16:17;;;;;;;;;;;2.70;1.00;;;;;;5055824;28;19908;-82
2023/03/27 05:18:44;;;;;;;;;;;2.70;1.00;;;;;;5074303;28;20361;-83
2023/03/27 05:21:12;;;;;;;;;;;2.70;1.00;;;;;;5074261;28;19909;-81
2023/03/27 05:23:59;;;;;;;;;;;2.70;1.00;;;;;;5070406;28;20276;-81
2023/03/27 05:26:35;;;;;;;;;;;2.60;1.00;;;;;;5094105;28;20244;-81
2023/03/27 05:29:11;;;;;;;;;;;2.70;1.00;;;;;;5094464;28;19904;-81
2023/03/27 05:31:37;;;;;;;;;;;2.80;1.00;;;;;;5094309;28;19908;-81
2023/03/27 05:34:05;;;;;;;;;;;2.70;1.00;;;;;;5075970;28;19935;-81
2023/03/27 05:36:41;;;;;;;;;;;2.70;1.00;;;;;;5094668;28;19908;-81
2023/03/27 05:39:07;;;;;;;;;;;2.80;1.00;;;;;;5075991;28;19904;-82
2023/03/27 05:44:36;;;;;;;;;;;2.70;1.00;;;;;;5092236;28;19915;-83
2023/03/27 05:47:11;;;;;;;;;;;2.70;1.00;;;;;;5074434;28;19904;-84
2023/03/27 05:49:38;;;;;;;;;;;2.70;1.00;;;;;;5056165;28;19911;-83
2023/03/27 05:52:11;;;;;;;;;;;2.80;1.00;;;;;;5074437;28;19908;-89
2023/03/27 05:54:47;;;;;;;;;;;2.80;1.00;;;;;;5074255;28;19951;-86
2023/03/27 05:57:23;;;;;;;;;;;2.90;1.00;;;;;;5056223;28;19912;-86
2023/03/27 06:00:26;;;;;;;;;;;3.00;1.00;;;;;;5056332;28;19904;-86
2023/03/27 06:02:55;;;;;;;;;;;3.00;1.00;;;;;;5056613;28;19957;-86
2023/03/27 06:05:31;;;;;;;;;;;3.10;1.00;;;;;;5056394;28;20002;-86
2023/03/27 06:11:00;;;;;;;;;;;3.00;1.00;;;;;;5073425;28;20327;-83
2023/03/27 06:13:53;;;;;;;;;;;3.00;1.00;;;;;;5055650;28;19908;-83
2023/03/27 06:16:35;;;;;;;;;;;3.00;1.00;;;;;;5055698;28;19954;-84
2023/03/27 06:22:23;;;;;;;;;;;3.00;1.00;;;;;;5077809;28;19911;-86
2023/03/27 06:27:52;;;;;;;;;;;3.20;1.00;;;;;;5077485;28;19950;-87
2023/03/27 06:36:47;;;;;;;;;;;3.40;1.00;;;;;;5077380;28;20001;-84
2023/03/27 06:39:29;;;;;;;;;;;3.50;1.00;;;;;;5077122;28;19909;-83
2023/03/27 06:44:57;;;;;;;;;;;3.70;1.00;;;;;;5078384;28;19934;-83
2023/03/27 06:47:23;;;;;;;;;;;3.70;1.00;;;;;;5071784;28;19912;-83
2023/03/27 06:50:24;;;;;;;;;;;3.80;1.00;;;;;;5078760;28;19904;-83
2023/03/27 06:58:55;;;;;;;;;;;4.10;1.00;;;;;;5096768;28;20364;-82
2023/03/27 07:07:47;;;;;;;;;;;4.30;1.00;;;;;;5076606;28;19958;-80
2023/03/27 07:10:17;;;;;;;;;;;4.30;1.00;;;;;;5073054;28;19916;-79
2023/03/27 07:13:05;;;;;;;;;;;4.30;1.00;;;;;;5092670;28;20379;-80
2023/03/27 07:15:35;;;;;;;;;;;4.40;1.00;;;;;;5093675;28;19912;-80
2023/03/27 07:18:07;;;;;;;;;;;4.40;1.00;;;;;;5095858;28;19908;-83
2023/03/27 07:20:53;;;;;;;;;;;4.50;1.00;;;;;;5077625;28;20360;-79
2023/03/27 07:23:29;;;;;;;;;;;4.60;1.00;;;;;;5078554;28;19911;-81
2023/03/27 07:26:17;;;;;;;;;;;4.60;1.00;;;;;;5096313;28;20049;-79
2023/03/27 07:28:49;;;;;;;;;;;4.70;1.00;;;;;;5095211;28;19950;-81
2023/03/27 07:31:23;;;;;;;;;;;4.90;1.00;;;;;;5096184;28;20339;-79
2023/03/27 07:33:53;;;;;;;;;;;5.00;1.00;;;;;;5096308;28;19908;-80
2023/03/27 07:36:29;;;;;;;;;;;5.00;1.00;;;;;;5077855;28;19943;-82
2023/03/27 07:39:17;;;;;;;;;;;5.10;1.00;;;;;;5095903;28;19904;-80
2023/03/27 07:42:06;;;;;;;;;;;5.30;1.00;;;;;;5096197;28;19931;-80
2023/03/27 07:44:41;;;;;;;;;;;5.30;1.00;;;;;;5095896;28;20282;-79
2023/03/27 07:47:24;;;;;;;;;;;5.40;1.00;;;;;;5096086;28;19904;-80
2023/03/27 07:50:08;;;;;;;;;;;5.40;1.00;;;;;;5095842;28;19904;-80
2023/03/27 07:52:44;;;;;;;;;;;5.60;1.00;;;;;;5096231;28;20279;-81
2023/03/27 07:55:16;;;;;;;;;;;5.70;1.00;;;;;;5088041;28;20252;-80
2023/03/27 07:57:48;;;;;;;;;;;5.80;1.00;;;;;;5093736;28;19915;-80
2023/03/27 08:00:42;;;;;;;;;;;5.90;1.00;;;;;;5075488;28;19919;-79
2023/03/27 08:03:24;;;;;;;;;;;6.00;1.00;;;;;;5075275;28;19905;-80
2023/03/27 08:05:55;;;;;;;;;;;6.00;1.00;;;;;;5075270;28;19904;-80
2023/03/27 08:11:23;;;;;;;;;;;5.90;1.00;;;;;;5074943;28;19966;-83
2023/03/27 08:17:05;;;;;;;;;;;6.00;1.00;;;;;;5074882;28;19915;-83
2023/03/27 08:22:35;;;;;;;;;;;6.10;1.00;;;;;;5075142;28;20440;-80
2023/03/27 08:25:06;;;;;;;;;;;6.20;1.00;;;;;;5074996;28;19904;-80
2023/03/27 08:27:43;;;;;;;;;;;6.20;1.00;;;;;;5074620;28;19905;-84
2023/03/27 08:30:14;;;;;;;;;;;6.20;1.00;;;;;;5075422;28;19905;-85
2023/03/27 08:32:41;;;;;;;;;;;6.20;1.00;;;;;;5057104;28;19913;-85
2023/03/27 08:38:09;;;;;;;;;;;6.50;1.00;;;;;;5074938;28;20004;-85
2023/03/27 08:43:56;;;;;;;;;;;6.70;1.00;;;;;;5074607;28;20323;-84
2023/03/27 08:49:46;;;;;;;;;;;6.80;1.00;;;;;;5079687;28;19930;-84
2023/03/27 08:52:14;;;;;;;;;;;6.80;1.00;;;;;;5077163;28;19904;-85
2023/03/27 08:55:14;;;;;;;;;;;7.00;1.00;;;;;;5077284;28;20263;-86
2023/03/27 08:57:42;;;;;;;;;;;7.00;1.00;;;;;;5033368;28;20396;-86
2023/03/27 09:06:25;;;;;;;;;;;6.80;1.00;;;;;;5013012;28;20459;-86
2023/03/27 09:08:57;;;;;;;;;;;6.70;1.00;;;;;;4996652;28;19906;-84
2023/03/27 09:11:28;;;;;;;;;;;6.70;1.00;;;;;;5012920;28;19921;-84
2023/03/27 09:16:58;;;;;;;;;;;6.80;1.00;;;;;;5012587;28;19916;-84
2023/03/27 09:22:32;;;;;;;;;;;7.00;1.00;;;;;;5012898;28;19968;-85
2023/03/27 09:25:01;;;;;;;;;;;7.20;1.00;;;;;;5013294;28;20001;-86
2023/03/27 09:27:32;;;;;;;;;;;7.30;1.00;;;;;;4996757;28;19980;-86
2023/03/27 09:30:15;;;;;;;;;;;7.40;1.00;;;;;;5013160;28;20349;-86
2023/03/27 09:32:41;;;;;;;;;;;7.60;1.00;;;;;;5029325;28;19912;-86
2023/03/27 09:35:12;;;;;;;;;;;7.70;1.00;;;;;;5057041;28;19911;-86
2023/03/27 09:37:38;;;;;;;;;;;7.80;1.00;;;;;;5074864;28;19904;-84
2023/03/27 09:40:08;;;;;;;;;;;8.00;1.00;;;;;;5074315;28;19904;-84
2023/03/27 09:42:42;;;;;;;;;;;8.00;1.00;;;;;;5056252;28;19908;-85
2023/03/27 09:45:10;;;;;;;;;;;8.30;1.00;;;;;;5074252;28;19911;-84
2023/03/27 09:50:43;;;;;;;;;;;8.10;1.00;;;;;;5094473;28;19941;-85
2023/03/27 09:56:13;;;;;;;;;;;8.20;1.00;;;;;;5078231;28;19915;-85
2023/03/27 10:02:08;;;;;;;;;;;8.40;1.00;;;;;;5078099;28;19950;-85
2023/03/27 10:04:55;;;;;;;;;;;8.50;1.00;;;;;;5069349;28;19908;-81
2023/03/27 10:07:29;;;;;;;;;;;8.50;1.00;;;;;;5080115;28;19903;-79
2023/03/27 10:10:33;;;;;;;;;;;8.30;1.00;;;;;;5080901;28;19990;-86
2023/03/27 10:13:23;;;;;;;;;;;8.40;1.00;;;;;;5098540;28;19959;-86
2023/03/27 10:16:05;;;;;;;;;;;8.20;1.00;;;;;;5086209;28;19908;-85
2023/03/27 10:27:42;;;;;;;;;;;8.70;1.00;;;;;;5077693;28;19911;-86
2023/03/27 10:30:30;;;;;;;5.45;1.27;;;8.90;1.00;;;;;;5058427;28;20417;-85
2023/03/27 10:33:00;;;;;;;2.63;0.80;;;9.20;1.00;;;;;;5066428;28;20210;-85
2023/03/27 10:39:04;;;;;;;7.50;1.00;;;9.30;1.00;;;;;;5077130;28;20914;-86
2023/03/27 10:41:33;;;;;;;4.80;1.00;;;9.50;1.00;;;;;;5077337;28;20374;-87
2023/03/27 10:44:00;;;;;;;2.60;1.10;;;9.60;1.00;;;;;;5077227;28;20406;-86
2023/03/27 10:46:27;;;;;;;1.97;1.00;;;9.70;1.00;;;;;;5058910;28;20413;-86
2023/03/27 10:49:13;;;;;;;3.83;0.80;;;9.70;1.00;;;;;;5059354;28;20414;-85
2023/03/27 10:51:47;;;;;;;1.60;1.30;;;9.60;1.00;;;;;;5077101;28;20385;-85
2023/03/27 10:54:35;;;;;;;4.40;1.00;;;9.60;1.00;;;;;;5059334;28;20492;-86
2023/03/27 10:57:04;;;;;;;1.30;0.70;;;9.80;1.00;;;;;;5058618;28;20449;-85
2023/03/27 10:59:40;;;;;;;4.43;1.20;;;9.70;1.00;;;;;;5076621;28;20378;-85
2023/03/27 11:02:24;;;;;;;3.03;1.00;;;9.70;1.00;;;;;;5058896;28;20496;-85
2023/03/27 11:05:13;;;;;;;1.63;1.20;;;9.40;1.00;;;;;;5076929;28;20419;-85
2023/03/27 11:07:54;;;;;;;2.83;0.83;;;9.40;1.00;;;;;;5068201;28;20421;-86
2023/03/27 11:10:44;;;;;;;2.80;1.07;;;9.60;1.00;;;;;;5076798;28;20368;-85
2023/03/27 11:13:22;;;;;;;2.20;0.80;;;9.70;1.00;;;;;;5076544;28;20388;-85
2023/03/27 11:19:48;;;;;;;1.17;0.90;;;9.90;1.00;;;;;;5076133;28;20416;-85
2023/03/27 11:26:14;;;;;;;3.27;0.70;;;10.00;1.00;;;;;;5076272;28;20431;-81
2023/03/27 11:29:04;;;;;;;4.67;1.10;;;10.20;1.00;;;;;;5057736;28;20425;-81
2023/03/27 11:32:17;;;;;;;3.03;0.80;;;10.30;1.00;;;;;;5075977;28;20797;-80
2023/03/27 11:34:56;;;;;;;1.23;1.00;;;10.40;1.00;;;;;;5080806;28;20425;-80
2023/03/27 11:37:27;;;;;;;1.67;0.90;;;10.20;1.00;;;;;;5086416;28;20877;-81
2023/03/27 11:40:19;;;;;;;1.93;0.97;;;10.20;1.00;;;;;;5057591;28;20947;-80
2023/03/27 11:43:00;;;;;;;1.70;0.90;;;10.30;1.00;;;;;;5057319;28;20436;-80
2023/03/27 11:45:43;;;;;;;0.60;0.60;;;10.50;1.00;;;;;;5085299;28;20412;-79
2023/03/27 11:48:47;;;;;;;2.87;0.90;;;10.50;1.00;;;;;;5079938;28;20439;-80
2023/03/27 11:55:28;;;;;;;1.10;0.87;;;10.70;1.00;;;;;;5075245;28;20737;-80
2023/03/27 11:58:08;;;;;;;1.47;0.80;;;10.60;1.00;;;;;;4954090;29;20446;-80
2023/03/27 12:01:08;;;;;;;5.60;1.10;;;10.70;1.00;;;;;;4954885;29;20919;-79
2023/03/27 12:04:10;;;;;;;4.60;0.77;;;10.40;1.00;;;;;;4938961;29;20427;-79
2023/03/27 12:07:00;;;;;;;4.23;0.90;;;10.10;1.00;;;;;;4954238;28;20425;-80
2023/03/27 12:09:48;;;;;;;2.07;0.80;;;9.70;1.00;;;;;;4974572;28;20480;-80
2023/03/27 12:12:30;;;;;;;1.17;1.07;;;9.40;1.00;;;;;;4973789;28;21047;-79
2023/03/27 12:15:18;;;;;;;1.87;0.70;;;8.90;1.00;;;;;;4951868;28;20430;-79
2023/03/27 12:18:00;;;;;;;2.93;0.80;;;8.50;1.00;;;;;;4954958;29;20417;-81
2023/03/27 12:21:05;;;;;;;0.70;0.70;;;8.40;1.00;;;;;;4954878;29;20407;-79
2023/03/27 12:23:58;;;;;;;0.80;0.80;;;8.40;1.00;;;;;;4954826;29;20394;-80
2023/03/27 12:26:31;;;;;;;1.83;1.00;;;8.60;1.00;;;;;;4954485;29;20498;-80
2023/03/27 12:29:30;;;;;;;1.37;0.77;;;8.90;1.00;;;;;;4954342;29;20414;-80
2023/03/27 12:32:24;;;;;;;1.50;0.60;;;9.20;1.00;;;;;;4953426;29;20430;-80
2023/03/27 12:35:28;;;;;;;0.80;0.80;;;9.30;1.00;;;;;;5029933;28;20860;-80
2023/03/27 12:41:32;;;;;;;1.00;0.90;;;8.90;1.00;;;;;;5011871;28;20439;-81
2023/03/27 12:44:02;;;;;;;2.10;1.00;;;9.20;1.00;;;;;;5003121;28;20482;-80
2023/03/27 12:46:34;;;;;;;3.07;0.90;;;9.30;1.00;;;;;;5011652;28;20966;-81
2023/03/27 12:49:04;;;;;;;1.07;1.00;;;9.30;1.00;;;;;;4998473;28;20465;-81
2023/03/27 12:52:01;;;;;;;2.67;0.90;;;9.00;1.00;;;;;;4992942;28;20392;-81
2023/03/27 12:54:35;;;;;;;1.53;0.80;;;9.20;1.00;;;;;;5007427;28;20404;-81
2023/03/27 12:57:21;;;;;;;1.53;0.80;;;9.40;1.00;;;;;;5012102;28;20457;-80
2023/03/27 12:59:57;;;;;;;2.43;0.97;;;9.50;1.00;;;;;;5012895;28;20415;-82
2023/03/27 13:02:48;;;;;;;4.17;1.10;;;9.30;1.00;;;;;;5012485;28;20392;-81
2023/03/27 13:05:55;;;;;;;2.33;0.90;;;9.50;1.00;;;;;;5008879;28;20921;-80
2023/03/27 13:08:43;;;;;;;1.17;0.90;;;9.60;1.00;;;;;;4992295;28;20421;-81
2023/03/27 13:11:53;;;;;;;2.10;1.30;;;9.60;1.00;;;;;;4994035;28;20516;-81
2023/03/27 13:14:49;;;;;;;1.00;1.00;;;9.60;1.00;;;;;;5073890;28;20421;-81
2023/03/27 13:17:24;;;;;;;2.00;1.10;;;9.70;1.00;;;;;;5073456;28;20445;-80
2023/03/27 13:19:55;;;;;;;1.60;1.00;;;9.90;1.00;;;;;;5055779;28;20910;-80
2023/03/27 13:22:49;;;;;;;1.10;1.00;;;9.90;1.00;;;;;;5073541;28;20389;-81
2023/03/27 13:25:19;;;;;;;2.33;1.10;;;9.90;1.00;;;;;;5074093;28;20856;-87
2023/03/27 13:28:18;;;;;;;1.73;1.20;;;10.00;1.00;;;;;;5077019;28;20398;-86
2023/03/27 13:30:50;;;;;;;1.67;1.10;;;10.10;1.00;;;;;;5078477;28;20383;-86
2023/03/27 13:33:30;;;;;;;1.10;1.00;;;10.20;1.00;;;;;;5078299;28;20891;-87
2023/03/27 13:35:56;;;;;;;3.00;0.90;;;10.30;1.00;;;;;;5060302;28;20454;-86
2023/03/27 13:38:50;;;;;;;1.37;0.90;;;10.30;1.00;;;;;;5078943;28;20364;-86
2023/03/27 13:42:03;;;;;;;1.27;0.90;;;10.50;1.00;;;;;;5078117;28;20179;-81
2023/03/27 13:44:50;;;;;;;1.00;0.90;;;10.60;1.00;;;;;;5055511;28;20408;-81
2023/03/27 13:47:42;;;;;;;1.70;0.80;;;10.80;1.00;;;;;;5055289;28;20365;-81
2023/03/27 13:50:20;;;;;;;2.53;1.10;;;10.90;1.00;;;;;;5055513;28;20498;-81
2023/03/27 13:53:06;;;;;;;1.83;1.00;;;11.10;1.00;;;;;;5055425;28;20434;-81
2023/03/27 13:55:41;;;;;;;2.83;1.23;;;11.20;1.00;;;;;;5056129;28;20424;-86
2023/03/27 13:58:16;;;;;;;1.13;0.87;;;11.00;1.00;;;;;;5039161;28;20380;-86
2023/03/27 14:00:54;;;;;;;1.70;0.97;;;11.10;1.00;;;;;;5056288;28;20369;-86
2023/03/27 14:03:29;;;;;;;1.07;1.00;;;10.90;1.00;;;;;;5060106;28;20788;-86
2023/03/27 14:06:29;;;;;;;1.20;1.10;;;10.90;1.00;;;;;;5058262;28;20416;-85
2023/03/27 14:08:58;;;;;;;3.40;1.10;;;10.70;1.00;;;;;;5025555;28;20969;-85
2023/03/27 14:11:36;;;;;;;3.53;1.00;;;10.80;1.00;;;;;;5018943;28;20393;-81
2023/03/27 14:14:24;;;;;;;2.80;1.30;;;10.50;1.00;;;;;;5018427;28;20415;-85
2023/03/27 14:17:01;;;;;;;1.23;1.00;;;9.90;1.00;;;;;;5018017;28;20542;-85
2023/03/27 14:19:41;;;;;;;1.20;1.10;;;9.70;1.00;;;;;;5034852;28;20469;-86
2023/03/27 14:22:31;;;;;;;2.50;1.00;;;9.80;1.00;;;;;;5016048;28;20383;-85
2023/03/27 14:25:01;;;;;;;1.83;1.13;;;9.60;1.00;;;;;;4960211;28;20418;-80
2023/03/27 14:27:28;;;;;;;2.40;1.00;;;9.50;1.00;;;;;;4976031;28;20920;-85
2023/03/27 14:30:08;;;;;;;1.63;1.00;;;9.40;1.00;;;;;;4960460;28;20520;-85
2023/03/27 14:32:34;;;;;;;3.10;0.70;;;9.40;1.00;;;;;;4976568;28;20864;-87
2023/03/27 14:35:03;;;;;;;4.10;1.30;;;9.50;1.00;;;;;;4976507;28;20406;-87
2023/03/27 14:37:36;;;;;;;1.10;0.80;;;9.40;1.00;;;;;;4975929;28;20399;-87
2023/03/27 14:40:18;;;;;;;2.30;0.83;;;9.40;1.00;;;;;;4960367;28;20418;-87
2023/03/27 14:42:47;;;;;;;1.23;0.90;;;9.40;1.00;;;;;;4975868;28;20414;-81
2023/03/27 14:45:26;;;;;;;0.70;0.70;;;9.50;1.00;;;;;;4983518;28;20900;-82
2023/03/27 14:48:44;;;;;;;2.00;1.00;;;9.40;1.00;;;;;;5014368;28;20399;-82
2023/03/27 14:51:32;;;;;;;2.20;0.90;;;9.50;1.00;;;;;;4959396;28;20425;-82
2023/03/27 14:54:07;;;;;;;2.33;1.10;;;9.60;1.00;;;;;;4975270;28;20456;-77
2023/03/27 14:56:44;;;;;;;1.53;0.80;;;9.80;1.00;;;;;;4973636;28;20548;-80
2023/03/27 14:59:23;;;;;;;1.30;0.93;;;10.00;1.00;;;;;;4955469;29;20414;-79
2023/03/27 15:01:56;;;;;;;3.40;1.27;;;9.70;1.00;;;;;;4974720;28;20413;-80
2023/03/27 15:04:23;;;;;;;2.23;1.00;;;9.30;1.00;;;;;;5014068;28;20480;-81
2023/03/27 15:06:49;;;;;;;1.63;1.00;;;9.30;1.00;;;;;;4997510;28;20459;-80
2023/03/27 15:09:22;;;;;;;1.73;1.10;;;9.30;1.00;;;;;;5014345;28;20439;-81
2023/03/27 15:11:55;;;;;;;1.33;0.90;;;9.30;1.00;;;;;;4998239;28;20185;-87
2023/03/27 15:14:26;;;;;;;1.83;1.03;;;9.50;1.00;;;;;;5014491;28;20953;-86
2023/03/27 15:17:11;;;;;;;9.53;1.40;;;9.40;1.00;;;;;;4997780;28;20479;-86
2023/03/27 15:19:47;;;;;;;1.30;0.90;;;8.90;1.00;;;;;;4998155;28;20412;-86
2023/03/27 15:22:22;;;;;;;3.53;1.20;;;8.70;1.00;;;;;;5014614;28;20392;-86
2023/03/27 15:24:56;;;;;;;3.63;1.40;;;8.50;1.00;;;;;;5035813;28;20390;-86
2023/03/27 15:27:29;;;;;;;2.40;1.40;;;8.50;1.00;;;;;;5075518;28;20401;-79
2023/03/27 15:30:02;;;;;;;1.40;1.30;;;8.00;1.00;;;;;;5075284;28;20436;-79
2023/03/27 15:32:41;;;;;;;1.30;1.20;;;7.80;1.00;;;;;;5075699;28;20457;-79
2023/03/27 15:35:16;;;;;;;1.53;1.43;;;7.50;1.00;;;;;;5075117;28;20480;-80
2023/03/27 15:37:43;;;;;;;1.87;1.27;;;7.20;1.00;;;;;;5057463;28;20413;-80
2023/03/27 15:40:12;;;;;;;1.80;1.03;;;7.20;1.00;;;;;;5075486;28;20885;-79
2023/03/27 15:42:49;;;;;;;1.47;1.00;;;7.60;1.00;;;;;;5075451;28;20418;-80
2023/03/27 15:45:21;;;;;;;2.30;0.93;;;7.40;1.00;;;;;;5075133;28;20388;-80
2023/03/27 15:48:20;;;;;;;1.53;0.90;;;7.40;1.00;;;;;;5075332;28;20382;-80
2023/03/27 15:51:07;;;;;;;2.73;1.10;;;7.60;1.00;;;;;;5056255;28;20762;-81
2023/03/27 15:53:36;;;;;;;2.00;0.73;;;8.50;1.00;;;;;;5074964;28;20389;-80
2023/03/27 15:56:06;;;;;;;1.57;1.00;;;9.80;1.00;;;;;;5074982;28;20460;-82
2023/03/27 15:58:56;;;;;;;2.67;0.93;;;10.50;1.00;;;;;;5086562;28;20507;-79
2023/03/27 16:01:38;;;;;;;1.10;0.83;;;11.90;1.00;;;;;;5094882;28;20385;-80
2023/03/27 16:04:16;;;;;;;0.80;0.70;;;14.10;1.00;;;;;;5114051;28;20766;-80
2023/03/27 16:06:49;;;;;;;2.27;0.80;;;15.60;1.00;;;;;;5115275;28;20389;-79
2023/03/27 16:09:26;;;;;;;5.07;0.90;;;16.00;1.00;;;;;;5115271;28;20388;-79
2023/03/27 16:11:53;;;;;;;3.80;1.10;;;17.20;1.00;;;;;;5115513;28;20429;-85
2023/03/27 16:14:21;;;;;;;1.73;0.90;;;18.70;1.00;;;;;;5115372;28;20512;-85
2023/03/27 16:16:48;;;;;;;0.60;0.60;;;19.00;1.00;;;;;;5097136;28;20545;-84
2023/03/27 16:19:14;;;;;;;2.10;0.70;;;18.70;1.00;;;;;;5115185;28;20415;-86
2023/03/27 16:21:55;;;;;;;1.33;0.60;;;19.10;1.00;;;;;;5115075;28;20362;-84
2023/03/27 16:24:21;;;;;;;1.20;0.70;;;19.40;1.00;;;;;;5115278;28;20723;-86
2023/03/27 16:26:46;;;;;;;1.03;0.70;;;17.60;1.00;;;;;;5115772;28;20396;-81
2023/03/27 16:29:14;;;;;;;1.10;0.70;;;16.90;1.00;;;;;;5114921;28;20155;-82
2023/03/27 16:31:40;;;;;;;3.63;0.80;;;16.70;1.00;;;;;;5096438;28;20830;-83
2023/03/27 16:34:11;;;;;;;1.30;0.80;;;16.80;1.00;;;;;;5114719;28;20901;-83
2023/03/27 16:36:37;;;;;;;2.30;0.70;;;16.50;1.00;;;;;;5096505;28;20572;-82